sensor_id;sensor_type;location;lat;lon;timestamp;P1;durP1;ratioP1;P2;durP2;ratioP2
7647;SDS011;3866;48.020;11.720;2022-08-24T00:01:13;4.20;;;3.20;;
7647;SDS011;3866;48.020;11.720;2022-08-24T00:03:43;4.07;;;3.13;;
7647;SDS011;3866;48.020;11.720;2022-08-24T00:06:13;2.97;;;2.77;;
7647;SDS011;3866;48.020;11.720;2022-08-24T00:08:43;3.20;;;2.90;;
7647;SDS011;3866;48.020;11.720;2022-08-24T00:11:11;3.30;;;3.00;;
7647;SDS011;3866;48.020;11.720;2022-08-24T00:13:38;4.27;;;2.77;;
7647;SDS011;3866;48.020;11.720;2022-08-24T00:16:05;3.70;;;3.40;;
7647;SDS011;3866;48.020;11.720;2022-08-24T00:18:33;3.37;;;2.97;;
7647;SDS011;3866;48.020;11.720;2022-08-24T00:21:02;4.93;;;3.07;;
7647;SDS011;3866;48.020;11.720;2022-08-24T00:23:29;3.13;;;2.87;;
7647;SDS011;3866;48.020;11.720;2022-08-24T00:25:56;2.97;;;2.70;;
7647;SDS011;3866;48.020;11.720;2022-08-24T00:28:23;3.23;;;2.93;;
7647;SDS011;3866;48.020;11.720;2022-08-24T00:30:50;2.80;;;2.60;;
7647;SDS011;3866;48.020;11.720;2022-08-24T00:33:17;3.53;;;2.70;;
7647;SDS011;3866;48.020;11.720;2022-08-24T00:35:44;4.67;;;3.17;;
7647;SDS011;3866;48.020;11.720;2022-08-24T00:38:12;3.10;;;2.60;;
7647;SDS011;3866;48.020;11.720;2022-08-24T00:40:42;3.27;;;2.93;;
7647;SDS011;3866;48.020;11.720;2022-08-24T00:43:12;3.03;;;2.67;;
7647;SDS011;3866;48.020;11.720;2022-08-24T00:45:40;2.80;;;2.60;;
7647;SDS011;3866;48.020;11.720;2022-08-24T00:48:10;5.13;;;2.87;;
7647;SDS011;3866;48.020;11.720;2022-08-24T00:50:41;3.40;;;3.20;;
7647;SDS011;3866;48.020;11.720;2022-08-24T00:53:11;4.37;;;2.93;;
7647;SDS011;3866;48.020;11.720;2022-08-24T00:55:43;3.23;;;3.03;;
7647;SDS011;3866;48.020;11.720;2022-08-24T00:58:15;3.57;;;3.27;;
7647;SDS011;3866;48.020;11.720;2022-08-24T01:00:45;3.77;;;3.47;;
7647;SDS011;3866;48.020;11.720;2022-08-24T01:03:14;5.10;;;3.33;;
7647;SDS011;3866;48.020;11.720;2022-08-24T01:05:42;3.40;;;3.07;;
7647;SDS011;3866;48.020;11.720;2022-08-24T01:08:10;2.93;;;2.73;;
7647;SDS011;3866;48.020;11.720;2022-08-24T01:10:40;3.03;;;2.80;;
7647;SDS011;3866;48.020;11.720;2022-08-24T01:13:10;3.57;;;3.23;;
7647;SDS011;3866;48.020;11.720;2022-08-24T01:15:40;3.47;;;3.17;;
7647;SDS011;3866;48.020;11.720;2022-08-24T01:18:13;3.47;;;3.17;;
7647;SDS011;3866;48.020;11.720;2022-08-24T01:21:00;3.93;;;3.37;;
7647;SDS011;3866;48.020;11.720;2022-08-24T01:23:35;3.20;;;3.00;;
7647;SDS011;3866;48.020;11.720;2022-08-24T01:26:05;3.47;;;3.23;;
7647;SDS011;3866;48.020;11.720;2022-08-24T01:28:35;3.10;;;2.80;;
7647;SDS011;3866;48.020;11.720;2022-08-24T01:31:05;3.57;;;3.07;;
7647;SDS011;3866;48.020;11.720;2022-08-24T01:33:32;4.00;;;3.20;;
7647;SDS011;3866;48.020;11.720;2022-08-24T01:36:01;3.57;;;3.27;;
7647;SDS011;3866;48.020;11.720;2022-08-24T01:38:30;3.43;;;3.13;;
7647;SDS011;3866;48.020;11.720;2022-08-24T01:41:00;3.20;;;3.00;;
7647;SDS011;3866;48.020;11.720;2022-08-24T01:43:29;3.50;;;3.03;;
7647;SDS011;3866;48.020;11.720;2022-08-24T01:45:56;3.97;;;3.17;;
7647;SDS011;3866;48.020;11.720;2022-08-24T01:48:23;3.87;;;3.47;;
7647;SDS011;3866;48.020;11.720;2022-08-24T01:50:50;3.87;;;3.57;;
7647;SDS011;3866;48.020;11.720;2022-08-24T01:53:17;3.70;;;3.43;;
7647;SDS011;3866;48.020;11.720;2022-08-24T01:55:45;3.73;;;3.40;;
7647;SDS011;3866;48.020;11.720;2022-08-24T01:58:13;3.60;;;3.30;;
7647;SDS011;3866;48.020;11.720;2022-08-24T02:00:41;4.60;;;3.33;;
7647;SDS011;3866;48.020;11.720;2022-08-24T02:03:09;3.77;;;3.47;;
7647;SDS011;3866;48.020;11.720;2022-08-24T02:05:36;4.17;;;3.77;;
7647;SDS011;3866;48.020;11.720;2022-08-24T02:08:03;3.40;;;3.20;;
7647;SDS011;3866;48.020;11.720;2022-08-24T02:10:30;3.97;;;3.43;;
7647;SDS011;3866;48.020;11.720;2022-08-24T02:12:59;3.60;;;3.30;;
7647;SDS011;3866;48.020;11.720;2022-08-24T02:15:29;3.77;;;3.40;;
7647;SDS011;3866;48.020;11.720;2022-08-24T02:17:57;3.80;;;3.50;;
7647;SDS011;3866;48.020;11.720;2022-08-24T02:20:25;3.53;;;3.23;;
7647;SDS011;3866;48.020;11.720;2022-08-24T02:22:53;4.37;;;3.97;;
7647;SDS011;3866;48.020;11.720;2022-08-24T02:25:21;3.80;;;3.50;;
7647;SDS011;3866;48.020;11.720;2022-08-24T02:27:49;4.20;;;3.80;;
7647;SDS011;3866;48.020;11.720;2022-08-24T02:30:16;3.70;;;3.50;;
7647;SDS011;3866;48.020;11.720;2022-08-24T02:32:44;3.77;;;3.47;;
7647;SDS011;3866;48.020;11.720;2022-08-24T02:35:12;4.27;;;3.30;;
7647;SDS011;3866;48.020;11.720;2022-08-24T02:37:39;3.60;;;3.30;;
7647;SDS011;3866;48.020;11.720;2022-08-24T02:40:07;3.33;;;3.13;;
7647;SDS011;3866;48.020;11.720;2022-08-24T02:42:35;3.70;;;3.37;;
7647;SDS011;3866;48.020;11.720;2022-08-24T02:45:03;4.53;;;3.40;;
7647;SDS011;3866;48.020;11.720;2022-08-24T02:47:31;3.60;;;3.30;;
7647;SDS011;3866;48.020;11.720;2022-08-24T02:50:01;3.80;;;3.50;;
7647;SDS011;3866;48.020;11.720;2022-08-24T02:52:28;3.20;;;3.00;;
7647;SDS011;3866;48.020;11.720;2022-08-24T02:54:55;5.23;;;3.60;;
7647;SDS011;3866;48.020;11.720;2022-08-24T02:57:22;3.50;;;3.30;;
7647;SDS011;3866;48.020;11.720;2022-08-24T02:59:49;3.83;;;3.50;;
7647;SDS011;3866;48.020;11.720;2022-08-24T03:02:16;3.67;;;3.37;;
7647;SDS011;3866;48.020;11.720;2022-08-24T03:04:43;5.83;;;3.93;;
7647;SDS011;3866;48.020;11.720;2022-08-24T03:07:12;3.80;;;3.50;;
7647;SDS011;3866;48.020;11.720;2022-08-24T03:09:39;4.00;;;3.70;;
7647;SDS011;3866;48.020;11.720;2022-08-24T03:12:06;3.33;;;3.13;;
7647;SDS011;3866;48.020;11.720;2022-08-24T03:14:33;3.57;;;3.37;;
7647;SDS011;3866;48.020;11.720;2022-08-24T03:17:00;3.60;;;3.30;;
7647;SDS011;3866;48.020;11.720;2022-08-24T03:19:27;6.30;;;4.00;;
7647;SDS011;3866;48.020;11.720;2022-08-24T03:21:54;4.10;;;3.80;;
7647;SDS011;3866;48.020;11.720;2022-08-24T03:24:23;3.87;;;3.17;;
7647;SDS011;3866;48.020;11.720;2022-08-24T03:26:50;4.40;;;3.70;;
7647;SDS011;3866;48.020;11.720;2022-08-24T03:29:17;3.30;;;3.10;;
7647;SDS011;3866;48.020;11.720;2022-08-24T03:31:45;4.27;;;3.77;;
7647;SDS011;3866;48.020;11.720;2022-08-24T03:34:12;3.50;;;3.20;;
7647;SDS011;3866;48.020;11.720;2022-08-24T03:36:40;2.90;;;2.70;;
7647;SDS011;3866;48.020;11.720;2022-08-24T03:39:10;4.00;;;3.70;;
7647;SDS011;3866;48.020;11.720;2022-08-24T03:41:38;6.67;;;3.83;;
7647;SDS011;3866;48.020;11.720;2022-08-24T03:44:05;4.07;;;3.77;;
7647;SDS011;3866;48.020;11.720;2022-08-24T03:46:33;3.97;;;3.67;;
7647;SDS011;3866;48.020;11.720;2022-08-24T03:49:02;4.97;;;4.00;;
7647;SDS011;3866;48.020;11.720;2022-08-24T03:51:32;4.03;;;3.70;;
7647;SDS011;3866;48.020;11.720;2022-08-24T03:54:01;3.97;;;3.57;;
7647;SDS011;3866;48.020;11.720;2022-08-24T03:56:28;4.33;;;3.93;;
7647;SDS011;3866;48.020;11.720;2022-08-24T03:58:57;4.27;;;3.97;;
7647;SDS011;3866;48.020;11.720;2022-08-24T04:01:25;4.23;;;3.93;;
7647;SDS011;3866;48.020;11.720;2022-08-24T04:03:52;4.73;;;4.03;;
7647;SDS011;3866;48.020;11.720;2022-08-24T04:06:19;4.90;;;4.10;;
7647;SDS011;3866;48.020;11.720;2022-08-24T04:08:47;4.67;;;4.27;;
7647;SDS011;3866;48.020;11.720;2022-08-24T04:11:16;4.20;;;3.90;;
7647;SDS011;3866;48.020;11.720;2022-08-24T04:13:45;5.37;;;4.70;;
7647;SDS011;3866;48.020;11.720;2022-08-24T04:16:16;6.07;;;4.50;;
7647;SDS011;3866;48.020;11.720;2022-08-24T04:18:45;6.17;;;4.00;;
7647;SDS011;3866;48.020;11.720;2022-08-24T04:21:16;5.27;;;4.57;;
7647;SDS011;3866;48.020;11.720;2022-08-24T04:23:44;9.07;;;4.37;;
7647;SDS011;3866;48.020;11.720;2022-08-24T04:26:12;4.80;;;4.10;;
7647;SDS011;3866;48.020;11.720;2022-08-24T04:28:39;4.87;;;4.30;;
7647;SDS011;3866;48.020;11.720;2022-08-24T04:31:06;4.57;;;3.80;;
7647;SDS011;3866;48.020;11.720;2022-08-24T04:33:35;7.27;;;4.20;;
7647;SDS011;3866;48.020;11.720;2022-08-24T04:36:05;4.30;;;3.93;;
7647;SDS011;3866;48.020;11.720;2022-08-24T04:38:33;4.87;;;4.03;;
7647;SDS011;3866;48.020;11.720;2022-08-24T04:41:02;4.40;;;3.83;;
7647;SDS011;3866;48.020;11.720;2022-08-24T04:43:31;4.47;;;4.07;;
7647;SDS011;3866;48.020;11.720;2022-08-24T04:45:58;3.60;;;3.30;;
7647;SDS011;3866;48.020;11.720;2022-08-24T04:48:25;5.43;;;4.13;;
7647;SDS011;3866;48.020;11.720;2022-08-24T04:50:54;5.43;;;4.00;;
7647;SDS011;3866;48.020;11.720;2022-08-24T04:53:20;4.23;;;3.80;;
7647;SDS011;3866;48.020;11.720;2022-08-24T04:55:48;5.10;;;3.90;;
7647;SDS011;3866;48.020;11.720;2022-08-24T04:58:16;5.17;;;3.90;;
7647;SDS011;3866;48.020;11.720;2022-08-24T05:00:44;5.07;;;3.87;;
7647;SDS011;3866;48.020;11.720;2022-08-24T05:03:11;3.73;;;3.43;;
7647;SDS011;3866;48.020;11.720;2022-08-24T05:05:39;6.63;;;4.03;;
7647;SDS011;3866;48.020;11.720;2022-08-24T05:08:08;5.00;;;4.07;;
7647;SDS011;3866;48.020;11.720;2022-08-24T05:10:36;4.00;;;3.60;;
7647;SDS011;3866;48.020;11.720;2022-08-24T05:13:03;4.80;;;3.50;;
7647;SDS011;3866;48.020;11.720;2022-08-24T05:15:31;4.80;;;3.77;;
7647;SDS011;3866;48.020;11.720;2022-08-24T05:17:59;4.77;;;4.00;;
7647;SDS011;3866;48.020;11.720;2022-08-24T05:20:26;7.03;;;4.03;;
7647;SDS011;3866;48.020;11.720;2022-08-24T05:22:53;9.77;;;3.90;;
7647;SDS011;3866;48.020;11.720;2022-08-24T05:25:22;7.33;;;3.50;;
7647;SDS011;3866;48.020;11.720;2022-08-24T05:27:49;6.00;;;4.10;;
7647;SDS011;3866;48.020;11.720;2022-08-24T05:30:16;4.87;;;3.77;;
7647;SDS011;3866;48.020;11.720;2022-08-24T05:32:43;4.40;;;3.47;;
7647;SDS011;3866;48.020;11.720;2022-08-24T05:35:10;13.40;;;4.27;;
7647;SDS011;3866;48.020;11.720;2022-08-24T05:37:38;11.83;;;4.17;;
7647;SDS011;3866;48.020;11.720;2022-08-24T05:40:08;11.37;;;4.60;;
7647;SDS011;3866;48.020;11.720;2022-08-24T05:42:38;12.93;;;4.10;;
7647;SDS011;3866;48.020;11.720;2022-08-24T05:45:06;14.50;;;3.90;;
7647;SDS011;3866;48.020;11.720;2022-08-24T05:47:34;12.90;;;4.17;;
7647;SDS011;3866;48.020;11.720;2022-08-24T05:50:02;20.43;;;4.20;;
7647;SDS011;3866;48.020;11.720;2022-08-24T05:52:30;18.17;;;4.97;;
7647;SDS011;3866;48.020;11.720;2022-08-24T05:54:59;18.60;;;4.37;;
7647;SDS011;3866;48.020;11.720;2022-08-24T05:57:29;8.30;;;4.07;;
7647;SDS011;3866;48.020;11.720;2022-08-24T05:59:59;9.57;;;3.70;;
7647;SDS011;3866;48.020;11.720;2022-08-24T06:02:26;6.33;;;3.10;;
7647;SDS011;3866;48.020;11.720;2022-08-24T06:04:54;6.77;;;3.27;;
7647;SDS011;3866;48.020;11.720;2022-08-24T06:07:21;5.03;;;3.27;;
7647;SDS011;3866;48.020;11.720;2022-08-24T06:09:48;12.00;;;3.60;;
7647;SDS011;3866;48.020;11.720;2022-08-24T06:12:14;6.20;;;3.53;;
7647;SDS011;3866;48.020;11.720;2022-08-24T06:14:44;4.10;;;3.17;;
7647;SDS011;3866;48.020;11.720;2022-08-24T06:17:12;5.47;;;3.53;;
7647;SDS011;3866;48.020;11.720;2022-08-24T06:19:40;4.90;;;3.07;;
7647;SDS011;3866;48.020;11.720;2022-08-24T06:22:08;3.47;;;3.17;;
7647;SDS011;3866;48.020;11.720;2022-08-24T06:24:35;6.70;;;3.70;;
7647;SDS011;3866;48.020;11.720;2022-08-24T06:27:20;5.13;;;3.60;;
7647;SDS011;3866;48.020;11.720;2022-08-24T06:29:50;3.60;;;3.30;;
7647;SDS011;3866;48.020;11.720;2022-08-24T06:32:20;3.50;;;3.17;;
7647;SDS011;3866;48.020;11.720;2022-08-24T06:34:47;9.23;;;4.73;;
7647;SDS011;3866;48.020;11.720;2022-08-24T06:37:14;8.07;;;6.03;;
7647;SDS011;3866;48.020;11.720;2022-08-24T06:39:41;6.03;;;4.17;;
7647;SDS011;3866;48.020;11.720;2022-08-24T06:42:08;4.27;;;3.07;;
7647;SDS011;3866;48.020;11.720;2022-08-24T06:44:36;2.37;;;1.97;;
7647;SDS011;3866;48.020;11.720;2022-08-24T06:47:03;1.77;;;1.67;;
7647;SDS011;3866;48.020;11.720;2022-08-24T06:49:31;5.47;;;1.67;;
7647;SDS011;3866;48.020;11.720;2022-08-24T06:51:58;1.77;;;1.67;;
7647;SDS011;3866;48.020;11.720;2022-08-24T06:54:25;2.10;;;1.43;;
7647;SDS011;3866;48.020;11.720;2022-08-24T06:56:52;2.23;;;1.50;;
7647;SDS011;3866;48.020;11.720;2022-08-24T06:59:20;4.05;;;1.77;;
7647;SDS011;3866;48.020;11.720;2022-08-24T07:01:47;2.70;;;1.38;;
7647;SDS011;3866;48.020;11.720;2022-08-24T07:04:14;2.88;;;1.83;;
7647;SDS011;3866;48.020;11.720;2022-08-24T07:06:43;1.77;;;1.67;;
7647;SDS011;3866;48.020;11.720;2022-08-24T07:09:10;1.63;;;1.30;;
7647;SDS011;3866;48.020;11.720;2022-08-24T07:11:37;2.75;;;1.58;;
7647;SDS011;3866;48.020;11.720;2022-08-24T07:14:04;2.15;;;1.65;;
7647;SDS011;3866;48.020;11.720;2022-08-24T07:16:31;1.65;;;1.55;;
7647;SDS011;3866;48.020;11.720;2022-08-24T07:18:59;1.98;;;1.42;;
7647;SDS011;3866;48.020;11.720;2022-08-24T07:21:26;2.50;;;1.60;;
7647;SDS011;3866;48.020;11.720;2022-08-24T07:23:55;1.83;;;1.60;;
7647;SDS011;3866;48.020;11.720;2022-08-24T07:26:24;2.90;;;1.80;;
7647;SDS011;3866;48.020;11.720;2022-08-24T07:28:54;1.60;;;1.50;;
7647;SDS011;3866;48.020;11.720;2022-08-24T07:31:25;3.27;;;1.97;;
7647;SDS011;3866;48.020;11.720;2022-08-24T07:33:52;2.03;;;1.60;;
7647;SDS011;3866;48.020;11.720;2022-08-24T07:36:19;3.10;;;1.60;;
7647;SDS011;3866;48.020;11.720;2022-08-24T07:38:46;1.83;;;1.47;;
7647;SDS011;3866;48.020;11.720;2022-08-24T07:41:14;2.30;;;1.73;;
7647;SDS011;3866;48.020;11.720;2022-08-24T07:43:41;2.17;;;1.60;;
7647;SDS011;3866;48.020;11.720;2022-08-24T07:46:08;2.30;;;1.90;;
7647;SDS011;3866;48.020;11.720;2022-08-24T07:48:35;2.07;;;1.73;;
7647;SDS011;3866;48.020;11.720;2022-08-24T07:51:05;2.17;;;1.97;;
7647;SDS011;3866;48.020;11.720;2022-08-24T07:53:33;3.13;;;1.87;;
7647;SDS011;3866;48.020;11.720;2022-08-24T07:56:00;2.23;;;1.70;;
7647;SDS011;3866;48.020;11.720;2022-08-24T07:58:28;2.93;;;1.50;;
7647;SDS011;3866;48.020;11.720;2022-08-24T08:00:56;2.00;;;1.70;;
7647;SDS011;3866;48.020;11.720;2022-08-24T08:03:23;2.93;;;1.87;;
7647;SDS011;3866;48.020;11.720;2022-08-24T08:05:54;4.33;;;1.77;;
7647;SDS011;3866;48.020;11.720;2022-08-24T08:08:22;2.17;;;1.97;;
7647;SDS011;3866;48.020;11.720;2022-08-24T08:10:49;4.83;;;1.90;;
7647;SDS011;3866;48.020;11.720;2022-08-24T08:13:16;2.60;;;1.93;;
7647;SDS011;3866;48.020;11.720;2022-08-24T08:15:44;3.73;;;1.97;;
7647;SDS011;3866;48.020;11.720;2022-08-24T08:18:12;2.80;;;1.80;;
7647;SDS011;3866;48.020;11.720;2022-08-24T08:20:40;2.43;;;1.77;;
7647;SDS011;3866;48.020;11.720;2022-08-24T08:23:08;4.27;;;1.90;;
7647;SDS011;3866;48.020;11.720;2022-08-24T08:26:01;1.83;;;1.67;;
7647;SDS011;3866;48.020;11.720;2022-08-24T08:28:28;2.57;;;1.63;;
7647;SDS011;3866;48.020;11.720;2022-08-24T08:30:58;1.83;;;1.73;;
7647;SDS011;3866;48.020;11.720;2022-08-24T08:33:25;3.70;;;1.87;;
7647;SDS011;3866;48.020;11.720;2022-08-24T08:35:55;2.10;;;1.90;;
7647;SDS011;3866;48.020;11.720;2022-08-24T08:38:29;2.50;;;1.47;;
7647;SDS011;3866;48.020;11.720;2022-08-24T08:40:59;3.20;;;1.90;;
7647;SDS011;3866;48.020;11.720;2022-08-24T08:43:39;2.93;;;2.00;;
7647;SDS011;3866;48.020;11.720;2022-08-24T08:46:19;2.63;;;1.93;;
7647;SDS011;3866;48.020;11.720;2022-08-24T08:52:12;5.37;;;2.00;;
7647;SDS011;3866;48.020;11.720;2022-08-24T08:55:03;5.00;;;2.20;;
7647;SDS011;3866;48.020;11.720;2022-08-24T08:57:50;2.50;;;2.23;;
7647;SDS011;3866;48.020;11.720;2022-08-24T09:00:30;5.70;;;2.07;;
7647;SDS011;3866;48.020;11.720;2022-08-24T09:03:18;2.33;;;1.93;;
7647;SDS011;3866;48.020;11.720;2022-08-24T09:09:10;2.20;;;2.00;;
7647;SDS011;3866;48.020;11.720;2022-08-24T09:12:02;2.40;;;2.30;;
7647;SDS011;3866;48.020;11.720;2022-08-24T09:14:44;6.00;;;2.50;;
7647;SDS011;3866;48.020;11.720;2022-08-24T09:17:35;2.20;;;2.00;;
7647;SDS011;3866;48.020;11.720;2022-08-24T09:20:30;4.83;;;2.20;;
7647;SDS011;3866;48.020;11.720;2022-08-24T09:23:35;2.97;;;2.07;;
7647;SDS011;3866;48.020;11.720;2022-08-24T09:26:15;4.70;;;1.97;;
7647;SDS011;3866;48.020;11.720;2022-08-24T09:28:52;2.23;;;2.10;;
7647;SDS011;3866;48.020;11.720;2022-08-24T09:31:34;3.47;;;1.93;;
7647;SDS011;3866;48.020;11.720;2022-08-24T09:34:16;3.53;;;2.00;;
7647;SDS011;3866;48.020;11.720;2022-08-24T09:36:54;2.20;;;1.90;;
7647;SDS011;3866;48.020;11.720;2022-08-24T09:39:36;2.57;;;1.93;;
7647;SDS011;3866;48.020;11.720;2022-08-24T09:42:23;2.10;;;1.90;;
7647;SDS011;3866;48.020;11.720;2022-08-24T09:45:19;7.37;;;2.00;;
7647;SDS011;3866;48.020;11.720;2022-08-24T09:48:09;2.97;;;1.97;;
7647;SDS011;3866;48.020;11.720;2022-08-24T09:50:58;1.97;;;1.80;;
7647;SDS011;3866;48.020;11.720;2022-08-24T09:57:15;3.17;;;1.77;;
7647;SDS011;3866;48.020;11.720;2022-08-24T10:00:11;6.53;;;1.97;;
7647;SDS011;3866;48.020;11.720;2022-08-24T10:02:58;1.77;;;1.60;;
7647;SDS011;3866;48.020;11.720;2022-08-24T10:05:40;4.90;;;1.90;;
7647;SDS011;3866;48.020;11.720;2022-08-24T10:08:24;4.20;;;1.70;;
7647;SDS011;3866;48.020;11.720;2022-08-24T10:11:06;5.60;;;1.70;;
7647;SDS011;3866;48.020;11.720;2022-08-24T10:13:47;3.70;;;1.73;;
7647;SDS011;3866;48.020;11.720;2022-08-24T10:16:27;1.97;;;1.77;;
7647;SDS011;3866;48.020;11.720;2022-08-24T10:19:06;2.70;;;1.57;;
7647;SDS011;3866;48.020;11.720;2022-08-24T10:21:45;1.73;;;1.63;;
7647;SDS011;3866;48.020;11.720;2022-08-24T10:24:39;1.90;;;1.70;;
7647;SDS011;3866;48.020;11.720;2022-08-24T10:27:42;4.40;;;1.90;;
7647;SDS011;3866;48.020;11.720;2022-08-24T10:33:15;2.47;;;1.90;;
7647;SDS011;3866;48.020;11.720;2022-08-24T10:35:59;2.13;;;1.80;;
7647;SDS011;3866;48.020;11.720;2022-08-24T10:39:14;3.33;;;2.20;;
7647;SDS011;3866;48.020;11.720;2022-08-24T10:42:24;2.63;;;1.80;;
7647;SDS011;3866;48.020;11.720;2022-08-24T10:45:45;2.83;;;1.53;;
7647;SDS011;3866;48.020;11.720;2022-08-24T10:48:55;3.53;;;1.63;;
7647;SDS011;3866;48.020;11.720;2022-08-24T10:51:51;8.23;;;3.97;;
7647;SDS011;3866;48.020;11.720;2022-08-24T10:54:35;7.17;;;3.63;;
7647;SDS011;3866;48.020;11.720;2022-08-24T10:57:04;2.87;;;2.20;;
7647;SDS011;3866;48.020;11.720;2022-08-24T10:59:35;2.20;;;1.60;;
7647;SDS011;3866;48.020;11.720;2022-08-24T11:02:09;2.60;;;2.00;;
7647;SDS011;3866;48.020;11.720;2022-08-24T11:04:54;3.57;;;1.97;;
7647;SDS011;3866;48.020;11.720;2022-08-24T11:07:22;3.33;;;1.80;;
7647;SDS011;3866;48.020;11.720;2022-08-24T11:09:50;2.50;;;1.80;;
7647;SDS011;3866;48.020;11.720;2022-08-24T11:12:22;3.53;;;2.10;;
7647;SDS011;3866;48.020;11.720;2022-08-24T11:14:51;3.93;;;2.17;;
7647;SDS011;3866;48.020;11.720;2022-08-24T11:17:21;2.77;;;2.00;;
7647;SDS011;3866;48.020;11.720;2022-08-24T11:19:52;3.17;;;2.00;;
7647;SDS011;3866;48.020;11.720;2022-08-24T11:22:29;3.70;;;2.00;;
7647;SDS011;3866;48.020;11.720;2022-08-24T11:24:58;3.37;;;2.27;;
7647;SDS011;3866;48.020;11.720;2022-08-24T11:27:30;2.30;;;2.03;;
7647;SDS011;3866;48.020;11.720;2022-08-24T11:30:03;1.97;;;1.80;;
7647;SDS011;3866;48.020;11.720;2022-08-24T11:32:39;1.93;;;1.70;;
7647;SDS011;3866;48.020;11.720;2022-08-24T11:35:14;2.43;;;1.60;;
7647;SDS011;3866;48.020;11.720;2022-08-24T11:37:48;4.07;;;1.90;;
7647;SDS011;3866;48.020;11.720;2022-08-24T11:40:18;2.67;;;1.80;;
7647;SDS011;3866;48.020;11.720;2022-08-24T11:42:52;2.70;;;1.70;;
7647;SDS011;3866;48.020;11.720;2022-08-24T11:45:33;3.60;;;1.77;;
7647;SDS011;3866;48.020;11.720;2022-08-24T11:48:16;1.57;;;1.47;;
7647;SDS011;3866;48.020;11.720;2022-08-24T11:50:51;7.27;;;1.50;;
7647;SDS011;3866;48.020;11.720;2022-08-24T11:53:26;1.60;;;1.43;;
7647;SDS011;3866;48.020;11.720;2022-08-24T11:56:05;3.13;;;1.90;;
7647;SDS011;3866;48.020;11.720;2022-08-24T11:58:41;2.77;;;1.63;;
7647;SDS011;3866;48.020;11.720;2022-08-24T12:01:16;2.57;;;1.93;;
7647;SDS011;3866;48.020;11.720;2022-08-24T12:06:52;1.60;;;1.30;;
7647;SDS011;3866;48.020;11.720;2022-08-24T12:09:29;1.23;;;1.10;;
7647;SDS011;3866;48.020;11.720;2022-08-24T12:12:11;1.17;;;1.10;;
7647;SDS011;3866;48.020;11.720;2022-08-24T12:14:45;2.97;;;1.50;;
7647;SDS011;3866;48.020;11.720;2022-08-24T12:17:21;1.70;;;1.30;;
7647;SDS011;3866;48.020;11.720;2022-08-24T12:19:53;2.43;;;1.30;;
7647;SDS011;3866;48.020;11.720;2022-08-24T12:22:26;1.23;;;1.23;;
7647;SDS011;3866;48.020;11.720;2022-08-24T12:24:57;1.10;;;1.10;;
7647;SDS011;3866;48.020;11.720;2022-08-24T12:27:47;2.87;;;1.13;;
7647;SDS011;3866;48.020;11.720;2022-08-24T12:30:18;1.60;;;1.50;;
7647;SDS011;3866;48.020;11.720;2022-08-24T12:32:46;1.10;;;1.10;;
7647;SDS011;3866;48.020;11.720;2022-08-24T12:35:20;2.07;;;1.23;;
7647;SDS011;3866;48.020;11.720;2022-08-24T12:37:54;2.33;;;1.70;;
7647;SDS011;3866;48.020;11.720;2022-08-24T12:40:28;4.27;;;1.80;;
7647;SDS011;3866;48.020;11.720;2022-08-24T12:43:00;4.37;;;2.17;;
7647;SDS011;3866;48.020;11.720;2022-08-24T12:45:32;3.73;;;2.20;;
7647;SDS011;3866;48.020;11.720;2022-08-24T12:48:04;2.50;;;1.73;;
7647;SDS011;3866;48.020;11.720;2022-08-24T12:50:39;2.07;;;1.67;;
7647;SDS011;3866;48.020;11.720;2022-08-24T12:53:23;2.23;;;2.13;;
7647;SDS011;3866;48.020;11.720;2022-08-24T12:56:30;1.83;;;1.73;;
7647;SDS011;3866;48.020;11.720;2022-08-24T12:59:17;3.30;;;1.77;;
7647;SDS011;3866;48.020;11.720;2022-08-24T13:01:55;2.13;;;1.93;;
7647;SDS011;3866;48.020;11.720;2022-08-24T13:04:35;3.43;;;1.70;;
7647;SDS011;3866;48.020;11.720;2022-08-24T13:07:08;2.07;;;1.93;;
7647;SDS011;3866;48.020;11.720;2022-08-24T13:09:39;1.50;;;1.40;;
7647;SDS011;3866;48.020;11.720;2022-08-24T13:15:57;2.57;;;1.60;;
7647;SDS011;3866;48.020;11.720;2022-08-24T13:21:14;4.13;;;1.87;;
7647;SDS011;3866;48.020;11.720;2022-08-24T13:30:29;3.20;;;1.97;;
7647;SDS011;3866;48.020;11.720;2022-08-24T13:33:04;2.07;;;1.90;;
7647;SDS011;3866;48.020;11.720;2022-08-24T13:38:27;1.90;;;1.80;;
7647;SDS011;3866;48.020;11.720;2022-08-24T13:44:40;4.40;;;2.53;;
7647;SDS011;3866;48.020;11.720;2022-08-24T13:47:21;32.33;;;5.60;;
7647;SDS011;3866;48.020;11.720;2022-08-24T13:49:56;6.83;;;2.27;;
7647;SDS011;3866;48.020;11.720;2022-08-24T13:52:42;5.93;;;2.33;;
7647;SDS011;3866;48.020;11.720;2022-08-24T13:55:27;2.50;;;1.93;;
7647;SDS011;3866;48.020;11.720;2022-08-24T13:58:12;1.90;;;1.80;;
7647;SDS011;3866;48.020;11.720;2022-08-24T14:00:48;4.97;;;1.90;;
7647;SDS011;3866;48.020;11.720;2022-08-24T14:03:34;4.07;;;1.90;;
7647;SDS011;3866;48.020;11.720;2022-08-24T14:06:31;2.03;;;1.93;;
7647;SDS011;3866;48.020;11.720;2022-08-24T14:09:15;5.90;;;2.30;;
7647;SDS011;3866;48.020;11.720;2022-08-24T14:11:57;5.23;;;1.90;;
7647;SDS011;3866;48.020;11.720;2022-08-24T14:14:41;2.27;;;1.90;;
7647;SDS011;3866;48.020;11.720;2022-08-24T14:17:29;1.80;;;1.70;;
7647;SDS011;3866;48.020;11.720;2022-08-24T14:20:32;2.33;;;2.00;;
7647;SDS011;3866;48.020;11.720;2022-08-24T14:23:28;19.67;;;3.97;;
7647;SDS011;3866;48.020;11.720;2022-08-24T14:29:30;2.50;;;1.80;;
7647;SDS011;3866;48.020;11.720;2022-08-24T14:35:14;1.97;;;1.77;;
7647;SDS011;3866;48.020;11.720;2022-08-24T14:38:03;1.83;;;1.70;;
7647;SDS011;3866;48.020;11.720;2022-08-24T14:40:41;1.90;;;1.80;;
7647;SDS011;3866;48.020;11.720;2022-08-24T14:43:45;1.93;;;1.73;;
7647;SDS011;3866;48.020;11.720;2022-08-24T14:46:22;1.60;;;1.50;;
7647;SDS011;3866;48.020;11.720;2022-08-24T14:48:56;2.17;;;1.90;;
7647;SDS011;3866;48.020;11.720;2022-08-24T14:51:37;1.93;;;1.83;;
7647;SDS011;3866;48.020;11.720;2022-08-24T14:54:24;1.70;;;1.60;;
7647;SDS011;3866;48.020;11.720;2022-08-24T14:57:02;2.00;;;1.60;;
7647;SDS011;3866;48.020;11.720;2022-08-24T14:59:47;2.63;;;1.90;;
7647;SDS011;3866;48.020;11.720;2022-08-24T15:02:34;2.80;;;1.70;;
7647;SDS011;3866;48.020;11.720;2022-08-24T15:05:37;2.13;;;1.77;;
7647;SDS011;3866;48.020;11.720;2022-08-24T15:08:08;2.00;;;1.83;;
7647;SDS011;3866;48.020;11.720;2022-08-24T15:10:38;2.00;;;1.60;;
7647;SDS011;3866;48.020;11.720;2022-08-24T15:13:09;2.17;;;1.97;;
7647;SDS011;3866;48.020;11.720;2022-08-24T15:15:40;1.67;;;1.43;;
7647;SDS011;3866;48.020;11.720;2022-08-24T15:18:17;2.17;;;1.97;;
7647;SDS011;3866;48.020;11.720;2022-08-24T15:20:55;2.13;;;1.93;;
7647;SDS011;3866;48.020;11.720;2022-08-24T15:23:35;2.50;;;1.67;;
7647;SDS011;3866;48.020;11.720;2022-08-24T15:26:12;1.63;;;1.37;;
7647;SDS011;3866;48.020;11.720;2022-08-24T15:28:49;1.70;;;1.60;;
7647;SDS011;3866;48.020;11.720;2022-08-24T15:31:18;3.20;;;1.60;;
7647;SDS011;3866;48.020;11.720;2022-08-24T15:33:51;2.23;;;1.90;;
7647;SDS011;3866;48.020;11.720;2022-08-24T15:36:21;2.43;;;1.70;;
7647;SDS011;3866;48.020;11.720;2022-08-24T15:38:48;3.47;;;2.00;;
7647;SDS011;3866;48.020;11.720;2022-08-24T15:41:17;1.83;;;1.73;;
7647;SDS011;3866;48.020;11.720;2022-08-24T15:43:47;1.77;;;1.67;;
7647;SDS011;3866;48.020;11.720;2022-08-24T15:46:19;2.43;;;2.23;;
7647;SDS011;3866;48.020;11.720;2022-08-24T15:48:48;2.13;;;1.93;;
7647;SDS011;3866;48.020;11.720;2022-08-24T15:51:29;1.97;;;1.80;;
7647;SDS011;3866;48.020;11.720;2022-08-24T15:54:11;2.90;;;1.63;;
7647;SDS011;3866;48.020;11.720;2022-08-24T15:56:42;2.10;;;1.63;;
7647;SDS011;3866;48.020;11.720;2022-08-24T15:59:13;1.97;;;1.70;;
7647;SDS011;3866;48.020;11.720;2022-08-24T16:01:54;1.90;;;1.63;;
7647;SDS011;3866;48.020;11.720;2022-08-24T16:04:41;2.27;;;2.07;;
7647;SDS011;3866;48.020;11.720;2022-08-24T16:07:14;2.63;;;1.80;;
7647;SDS011;3866;48.020;11.720;2022-08-24T16:09:48;2.87;;;1.53;;
7647;SDS011;3866;48.020;11.720;2022-08-24T16:12:27;1.37;;;1.27;;
7647;SDS011;3866;48.020;11.720;2022-08-24T16:14:55;1.70;;;1.60;;
7647;SDS011;3866;48.020;11.720;2022-08-24T16:17:36;1.37;;;1.27;;
7647;SDS011;3866;48.020;11.720;2022-08-24T16:20:07;2.70;;;1.50;;